createdAt,value
2022-12-12T00:00:51.072Z,93069.25
2022-12-12T00:03:18.054Z,93072.25
2022-12-12T00:05:44.715Z,93076.84
2022-12-12T00:08:11.502Z,93076.53
2022-12-12T00:10:38.184Z,93080.50
2022-12-12T00:13:05.100Z,93078.78
2022-12-12T00:15:31.881Z,93082.41
2022-12-12T00:17:58.537Z,93077.50
2022-12-12T00:20:25.173Z,93080.03
2022-12-12T00:22:51.791Z,93075.44
2022-12-12T00:25:18.439Z,93070.69
2022-12-12T00:27:45.144Z,93080.50
2022-12-12T00:30:12.273Z,93084.63
2022-12-12T00:32:38.900Z,93078.28
2022-12-12T00:35:05.992Z,93074.47
2022-12-12T00:37:32.632Z,93077.78
2022-12-12T00:39:59.404Z,93081.75
2022-12-12T00:42:27.407Z,93078.44
2022-12-12T00:44:54.200Z,93077.00
2022-12-12T00:47:20.899Z,93080.66
2022-12-12T00:49:47.491Z,93067.66
2022-12-12T00:52:14.163Z,93074.47
2022-12-12T00:54:40.935Z,93066.22
2022-12-12T00:57:07.580Z,93063.69
2022-12-12T00:59:34.264Z,93074.94
2022-12-12T01:02:01.068Z,93069.41
2022-12-12T01:04:28.094Z,93065.94
2022-12-12T01:06:54.821Z,93066.22
2022-12-12T01:09:21.485Z,93070.34
2022-12-12T01:11:48.115Z,93073.53
2022-12-12T01:14:14.896Z,93072.09
2022-12-12T01:16:41.855Z,93079.22
2022-12-12T01:19:08.810Z,93080.50
2022-12-12T01:21:36.915Z,93080.34
2022-12-12T01:24:03.796Z,93072.91
2022-12-12T01:26:30.415Z,93079.69
2022-12-12T01:28:57.195Z,93088.59
2022-12-12T01:31:24.156Z,93093.19
2022-12-12T01:33:51.194Z,93083.97
2022-12-12T01:36:20.256Z,93092.22
2022-12-12T01:38:48.655Z,93092.53
2022-12-12T01:41:15.736Z,93090.19
2022-12-12T01:43:42.446Z,93097.63
2022-12-12T01:46:37.263Z,93099.84
2022-12-12T01:49:14.439Z,93100.94
2022-12-12T01:51:42.465Z,93088.72
2022-12-12T01:54:15.095Z,93097.47
2022-12-12T01:56:44.544Z,93097.94
2022-12-12T01:59:13.147Z,93093.34
2022-12-12T02:01:40.452Z,93095.41
2022-12-12T02:04:08.067Z,93088.41
2022-12-12T02:06:34.905Z,93100.94
2022-12-12T02:09:05.522Z,93099.03
2022-12-12T02:11:33.294Z,93100.94
2022-12-12T02:14:00.208Z,93109.34
2022-12-12T02:16:48.076Z,93106.50
2022-12-12T02:19:51.502Z,93104.75
2022-12-12T02:22:52.535Z,93104.09
2022-12-12T02:25:47.317Z,93110.13
2022-12-12T02:28:19.774Z,93115.19
2022-12-12T02:31:15.990Z,93115.19
2022-12-12T02:33:45.637Z,93117.25
2022-12-12T02:36:19.635Z,93102.19
2022-12-12T02:39:07.541Z,93113.59
2022-12-12T02:42:05.250Z,93114.72
2022-12-12T02:44:59.979Z,93108.53
2022-12-12T02:47:39.847Z,93108.38
2022-12-12T02:50:09.009Z,93109.66
2022-12-12T02:52:36.892Z,93107.44
2022-12-12T02:55:04.713Z,93118.06
2022-12-12T02:57:31.312Z,93108.69
2022-12-12T03:00:08.930Z,93106.50
2022-12-12T03:02:48.871Z,93110.59
2022-12-12T03:05:57.565Z,93101.56
2022-12-12T03:08:36.154Z,93100.47
2022-12-12T03:11:20.035Z,93110.59
2022-12-12T03:13:53.505Z,93109.97
2022-12-12T03:16:39.344Z,93115.19
2022-12-12T03:19:10.878Z,93112.50
2022-12-12T03:21:47.079Z,93111.72
2022-12-12T03:24:35.500Z,93104.09
2022-12-12T03:27:07.274Z,93111.03
2022-12-12T03:29:39.197Z,93097.44
2022-12-12T03:32:11.023Z,93107.41
2022-12-12T03:34:44.820Z,93109.31
2022-12-12T03:37:24.501Z,93099.00
2022-12-12T03:40:02.299Z,93104.09
2022-12-12T03:42:42.342Z,93108.34
2022-12-12T03:45:17.623Z,93109.31
2022-12-12T03:47:56.103Z,93115.03
2022-12-12T03:50:25.613Z,93106.78
2022-12-12T03:52:58.934Z,93108.66
2022-12-12T03:55:31.374Z,93109.75
2022-12-12T03:58:00.674Z,93101.41
2022-12-12T04:00:28.649Z,93102.03
2022-12-12T04:03:23.226Z,93101.72
2022-12-12T04:06:27.405Z,93101.41
2022-12-12T04:09:22.315Z,93100.13
2022-12-12T04:12:41.645Z,93102.66
2022-12-12T04:15:26.952Z,93104.25
2022-12-12T04:18:08.783Z,93105.50
2022-12-12T04:21:17.236Z,93108.69
2022-12-12T04:24:02.655Z,93115.53
2022-12-12T04:26:52.804Z,93113.81
2022-12-12T04:29:19.410Z,93121.69
2022-12-12T04:31:51.980Z,93119.00
2022-12-12T04:34:55.414Z,93131.66
2022-12-12T04:37:26.567Z,93133.06
2022-12-12T04:39:55.588Z,93125.94
2022-12-12T04:42:24.704Z,93120.25
2022-12-12T04:44:54.224Z,93119.44
2022-12-12T04:47:22.317Z,93125.63
2022-12-12T04:49:50.114Z,93119.75
2022-12-12T04:52:18.854Z,93126.09
2022-12-12T04:54:51.782Z,93127.69
2022-12-12T04:57:23.579Z,93130.56
2022-12-12T04:59:50.454Z,93139.44
2022-12-12T05:02:40.353Z,93142.28
2022-12-12T05:05:18.975Z,93142.41
2022-12-12T05:08:27.842Z,93151.03
2022-12-12T05:10:56.227Z,93156.25
2022-12-12T05:13:40.766Z,93159.81
2022-12-12T05:16:32.765Z,93163.47
2022-12-12T05:19:00.178Z,93153.34
2022-12-12T05:21:26.955Z,93157.31
2022-12-12T05:23:53.887Z,93166.50
2022-12-12T05:26:23.701Z,93155.88
2022-12-12T05:28:53.016Z,93146.97
2022-12-12T05:31:20.147Z,93150.13
2022-12-12T05:33:46.940Z,93148.38
2022-12-12T05:36:14.210Z,93142.91
2022-12-12T05:38:40.994Z,93155.59
2022-12-12T05:41:08.245Z,93154.66
2022-12-12T05:43:35.282Z,93158.16
2022-12-12T05:46:02.090Z,93163.84
2022-12-12T05:48:28.812Z,93162.41
2022-12-12T05:50:55.691Z,93166.22
2022-12-12T05:53:23.278Z,93182.88
2022-12-12T05:55:51.570Z,93172.41
2022-12-12T05:58:19.669Z,93166.03
2022-12-12T06:00:52.776Z,93157.91
2022-12-12T06:03:19.773Z,93164.75
2022-12-12T06:05:46.679Z,93155.81
2022-12-12T06:08:13.667Z,93153.28
2022-12-12T06:10:40.406Z,93152.50
2022-12-12T06:13:07.087Z,93156.94
2022-12-12T06:15:33.835Z,93159.22
2022-12-12T06:18:00.546Z,93152.28
2022-12-12T06:20:27.339Z,93164.34
2022-12-12T06:22:54.174Z,93174.16
2022-12-12T06:25:21.386Z,93181.28
2022-12-12T06:27:48.129Z,93180.63
2022-12-12T06:30:15.094Z,93180.97
2022-12-12T06:32:42.784Z,93183.34
2022-12-12T06:35:10.480Z,93188.06
2022-12-12T06:37:37.440Z,93186.66
2022-12-12T06:40:05.062Z,93190.16
2022-12-12T06:42:31.894Z,93191.66
2022-12-12T06:44:58.692Z,93182.50
2022-12-12T06:47:25.409Z,93181.88
2022-12-12T06:49:52.476Z,93194.88
2022-12-12T06:52:19.163Z,93183.16
2022-12-12T06:54:46.542Z,93186.78
2022-12-12T06:57:13.294Z,93194.13
2022-12-12T06:59:40.053Z,93196.31
2022-12-12T07:02:07.219Z,93210.06
2022-12-12T07:04:33.993Z,93207.34
2022-12-12T07:07:00.733Z,93210.03
2022-12-12T07:09:28.464Z,93223.47
2022-12-12T07:11:55.359Z,93208.53
2022-12-12T07:14:22.126Z,93218.09
2022-12-12T07:16:48.992Z,93227.13
2022-12-12T07:19:15.733Z,93225.66
2022-12-12T07:21:42.483Z,93231.50
2022-12-12T07:24:09.382Z,93238.63
2022-12-12T07:26:36.253Z,93245.84
2022-12-12T07:29:05.414Z,93243.06
2022-12-12T07:31:32.418Z,93241.97
2022-12-12T07:33:59.245Z,93240.53
2022-12-12T07:36:26.022Z,93234.75
2022-12-12T07:38:52.757Z,93245.06
2022-12-12T07:41:20.952Z,93243.72
2022-12-12T07:43:48.132Z,93244.47
2022-12-12T07:46:18.020Z,93251.00
2022-12-12T07:48:44.890Z,93246.78
2022-12-12T07:51:12.130Z,93259.69
2022-12-12T07:53:38.876Z,93266.25
2022-12-12T07:56:10.116Z,93274.44
2022-12-12T07:58:37.256Z,93268.38
2022-12-12T08:01:15.696Z,93273.81
2022-12-12T08:03:44.404Z,93273.03
2022-12-12T08:06:11.726Z,93274.25
2022-12-12T08:08:38.705Z,93283.38
2022-12-12T08:11:07.464Z,93280.94
2022-12-12T08:13:36.205Z,93281.28
2022-12-12T08:16:03.640Z,93279.31
2022-12-12T08:18:30.566Z,93282.28
2022-12-12T08:20:57.353Z,93291.09
2022-12-12T08:23:24.262Z,93291.72
2022-12-12T08:25:51.113Z,93292.91
2022-12-12T08:28:18.668Z,93308.16
2022-12-12T08:30:50.092Z,93304.69
2022-12-12T08:33:17.174Z,93306.06
2022-12-12T08:35:43.935Z,93315.91
2022-12-12T08:38:10.732Z,93320.41
2022-12-12T08:40:37.454Z,93318.31
2022-12-12T08:43:04.178Z,93321.19
2022-12-12T08:45:30.851Z,93328.97
2022-12-12T08:47:58.765Z,93322.44
2022-12-12T08:50:25.687Z,93324.50
2022-12-12T08:52:52.980Z,93326.09
2022-12-12T08:55:20.307Z,93326.69
2022-12-12T08:57:47.209Z,93339.19
2022-12-12T09:00:14.594Z,93334.84
2022-12-12T09:02:41.648Z,93336.81
2022-12-12T09:05:08.814Z,93335.59
2022-12-12T09:07:36.445Z,93334.78
2022-12-12T09:10:04.814Z,93339.13
2022-12-12T09:12:34.523Z,93331.28
2022-12-12T09:15:04.076Z,93337.97
2022-12-12T09:17:31.052Z,93335.72
2022-12-12T09:19:57.764Z,93332.56
2022-12-12T09:22:24.534Z,93334.25
2022-12-12T09:24:51.254Z,93328.47
2022-12-12T09:27:17.982Z,93326.25
2022-12-12T09:29:44.684Z,93338.19
2022-12-12T09:32:11.493Z,93330.78
2022-12-12T09:34:38.711Z,93326.34
2022-12-12T09:37:05.694Z,93327.91
2022-12-12T09:39:32.465Z,93321.97
2022-12-12T09:42:11.785Z,93325.25
2022-12-12T09:44:38.905Z,93324.34
2022-12-12T09:47:11.155Z,93320.47
2022-12-12T09:49:45.515Z,93326.38
2022-12-12T09:52:15.526Z,93327.97
2022-12-12T09:54:42.371Z,93318.97
2022-12-12T09:57:27.324Z,93330.88
2022-12-12T10:00:09.575Z,93324.00
2022-12-12T10:02:36.275Z,93327.19
2022-12-12T10:05:08.797Z,93330.47
2022-12-12T10:07:42.804Z,93332.28
2022-12-12T10:10:15.473Z,93318.97
2022-12-12T10:12:42.656Z,93335.66
2022-12-12T10:15:27.575Z,93330.53
2022-12-12T10:17:55.762Z,93329.56
2022-12-12T10:20:31.316Z,93331.59
2022-12-12T10:23:07.254Z,93331.78
2022-12-12T10:25:47.819Z,93318.72
2022-12-12T10:28:16.415Z,93330.25
2022-12-12T10:31:10.849Z,93333.06
2022-12-12T10:34:30.163Z,93332.19
2022-12-12T10:37:05.615Z,93349.09
2022-12-12T10:39:41.105Z,93341.34
2022-12-12T10:42:35.757Z,93341.38
2022-12-12T10:45:02.453Z,93349.22
2022-12-12T10:47:29.194Z,93346.81
2022-12-12T10:50:19.175Z,93349.69
2022-12-12T10:52:45.959Z,93340.47
2022-12-12T10:55:21.607Z,93333.25
2022-12-12T10:57:48.344Z,93340.00
2022-12-12T11:00:26.948Z,93336.06
2022-12-12T11:02:59.964Z,93336.78
2022-12-12T11:05:29.693Z,93329.66
2022-12-12T11:08:32.838Z,93328.59
2022-12-12T11:11:21.206Z,93332.28
2022-12-12T11:13:52.484Z,93333.69
2022-12-12T11:16:28.841Z,93342.50
2022-12-12T11:19:05.227Z,93340.56
2022-12-12T11:21:34.828Z,93337.41
2022-12-12T11:24:07.375Z,93342.25
2022-12-12T11:26:43.546Z,93338.00
2022-12-12T11:29:26.474Z,93340.97
2022-12-12T11:31:53.552Z,93338.41
2022-12-12T11:34:21.554Z,93348.19
2022-12-12T11:36:48.455Z,93346.72
2022-12-12T11:39:24.032Z,93342.53
2022-12-12T11:42:13.034Z,93349.88
2022-12-12T11:44:40.525Z,93345.38
2022-12-12T11:47:22.624Z,93361.56
2022-12-12T11:49:54.804Z,93339.34
2022-12-12T11:52:33.946Z,93342.56
2022-12-12T11:55:01.076Z,93321.19
2022-12-12T11:57:52.700Z,93338.38
2022-12-12T12:00:21.486Z,93336.59
2022-12-12T12:02:48.196Z,93330.69
2022-12-12T12:05:33.566Z,93330.25
2022-12-12T12:08:40.901Z,93325.97
2022-12-12T12:11:32.764Z,93323.59
2022-12-12T12:14:19.828Z,93321.63
2022-12-12T12:16:47.242Z,93328.34
2022-12-12T12:19:37.136Z,93321.00
2022-12-12T12:22:18.992Z,93329.59
2022-12-12T12:24:45.672Z,93332.19
2022-12-12T12:27:34.204Z,93326.59
2022-12-12T12:30:00.884Z,93328.16
2022-12-12T12:32:33.435Z,93323.16
2022-12-12T12:35:15.315Z,93328.59
2022-12-12T12:38:25.142Z,93331.16
2022-12-12T12:41:15.263Z,93330.94
2022-12-12T12:43:58.454Z,93332.44
2022-12-12T12:46:53.386Z,93333.25
2022-12-12T12:49:25.146Z,93330.13
2022-12-12T12:52:21.793Z,93344.00
2022-12-12T12:54:49.488Z,93344.13
2022-12-12T12:57:25.156Z,93342.34
2022-12-12T12:59:54.921Z,93347.97
2022-12-12T13:02:55.765Z,93338.06
2022-12-12T13:05:42.654Z,93347.81
2022-12-12T13:08:40.446Z,93341.34
2022-12-12T13:11:11.194Z,93349.06
2022-12-12T13:13:40.654Z,93353.06
2022-12-12T13:16:08.150Z,93354.34
2022-12-12T13:18:45.171Z,93344.72
2022-12-12T13:21:25.511Z,93360.00
2022-12-12T13:23:56.957Z,93360.38
2022-12-12T13:26:29.440Z,93363.09
2022-12-12T13:29:04.588Z,93370.00
2022-12-12T13:31:38.180Z,93369.66
2022-12-12T13:34:15.058Z,93375.66
2022-12-12T13:36:44.069Z,93381.63
2022-12-12T13:39:32.384Z,93378.31
2022-12-12T13:42:01.789Z,93384.00
2022-12-12T13:44:46.132Z,93390.25
2022-12-12T13:47:25.147Z,93399.31
2022-12-12T13:50:14.976Z,93396.47
2022-12-12T13:52:43.017Z,93392.31
2022-12-12T13:55:19.094Z,93388.75
2022-12-12T13:58:02.784Z,93393.09
2022-12-12T14:00:39.493Z,93392.31
2022-12-12T14:03:18.435Z,93409.00
2022-12-12T14:05:50.512Z,93411.91
2022-12-12T14:08:17.246Z,93416.34
2022-12-12T14:10:49.964Z,93416.81
2022-12-12T14:13:22.456Z,93414.13
2022-12-12T14:15:58.279Z,93415.25
2022-12-12T14:18:51.786Z,93416.50
2022-12-12T14:21:20.852Z,93406.66
2022-12-12T14:23:49.792Z,93405.06
2022-12-12T14:26:28.381Z,93411.69
2022-12-12T14:29:16.888Z,93414.25
2022-12-12T14:31:53.994Z,93416.97
2022-12-12T14:34:33.295Z,93417.91
2022-12-12T14:37:18.053Z,93419.50
2022-12-12T14:39:51.283Z,93426.16
2022-12-12T14:42:28.003Z,93427.94
2022-12-12T14:45:29.224Z,93427.53
2022-12-12T14:48:29.551Z,93424.38
2022-12-12T14:51:12.158Z,93423.88
2022-12-12T14:53:39.096Z,93428.63
2022-12-12T14:56:17.814Z,93423.69
2022-12-12T14:58:57.979Z,93425.53
2022-12-12T15:01:38.825Z,93434.09
2022-12-12T15:04:10.357Z,93433.28
2022-12-12T15:06:50.934Z,93434.09
2022-12-12T15:09:31.061Z,93432.81
2022-12-12T15:12:10.135Z,93439.19
2022-12-12T15:14:57.507Z,93444.28
2022-12-12T15:17:28.052Z,93448.91
2022-12-12T15:20:01.297Z,93458.97
2022-12-12T15:22:33.177Z,93460.13
2022-12-12T15:25:01.837Z,93461.25
2022-12-12T15:27:30.680Z,93452.22
2022-12-12T15:29:59.214Z,93456.50
2022-12-12T15:32:27.469Z,93458.50
2022-12-12T15:35:04.464Z,93454.47
2022-12-12T15:37:38.453Z,93450.41
2022-12-12T15:40:11.331Z,93447.50
2022-12-12T15:42:38.806Z,93443.63
2022-12-12T15:45:09.101Z,93448.66
2022-12-12T15:47:35.908Z,93443.66
2022-12-12T15:50:09.359Z,93450.88
2022-12-12T15:52:36.054Z,93444.88
2022-12-12T15:55:05.193Z,93445.97
2022-12-12T15:57:34.528Z,93458.72
2022-12-12T16:00:05.803Z,93450.69
2022-12-12T16:02:35.519Z,93445.69
2022-12-12T16:05:07.646Z,93447.28
2022-12-12T16:07:37.826Z,93451.97
2022-12-12T16:10:21.565Z,93458.72
2022-12-12T16:13:24.334Z,93459.13
2022-12-12T16:15:51.092Z,93463.53
2022-12-12T16:18:23.681Z,93459.88
2022-12-12T16:20:55.133Z,93468.69
2022-12-12T16:23:30.899Z,93477.50
2022-12-12T16:25:58.702Z,93482.19
2022-12-12T16:28:30.014Z,93486.81
2022-12-12T16:30:58.674Z,93484.13
2022-12-12T16:33:35.812Z,93490.56
2022-12-12T16:36:05.710Z,93479.84
2022-12-12T16:38:32.627Z,93482.50
2022-12-12T16:41:03.165Z,93492.16
2022-12-12T16:43:30.016Z,93492.63
2022-12-12T16:45:57.718Z,93489.31
2022-12-12T16:48:26.849Z,93486.84
2022-12-12T16:50:58.374Z,93508.69
2022-12-12T16:53:25.143Z,93500.38
2022-12-12T16:55:52.796Z,93503.22
2022-12-12T16:58:21.352Z,93503.88
2022-12-12T17:00:48.448Z,93510.69
2022-12-12T17:03:16.430Z,93509.88
2022-12-12T17:05:45.362Z,93515.72
2022-12-12T17:08:13.094Z,93531.16
2022-12-12T17:10:39.884Z,93532.06
2022-12-12T17:13:08.217Z,93543.75
2022-12-12T17:15:34.928Z,93549.47
2022-12-12T17:18:02.441Z,93540.94
2022-12-12T17:20:37.610Z,93553.78
2022-12-12T17:25:50.573Z,93539.72
2022-12-12T17:28:19.614Z,93544.50
2022-12-12T17:30:49.821Z,93547.13
2022-12-12T17:33:18.203Z,93546.88
2022-12-12T17:35:45.203Z,93542.63
2022-12-12T17:38:16.098Z,93546.88
2022-12-12T17:40:43.764Z,93546.09
2022-12-12T17:43:10.424Z,93554.34
2022-12-12T17:45:37.200Z,93559.66
2022-12-12T17:48:05.158Z,93553.56
2022-12-12T17:50:34.030Z,93558.06
2022-12-12T17:53:03.885Z,93554.88
2022-12-12T17:55:53.232Z,93552.47
2022-12-12T17:58:17.270Z,93557.00
2022-12-12T18:00:44.160Z,93550.75
2022-12-12T18:03:10.857Z,93552.22
2022-12-12T18:05:37.599Z,93556.22
2022-12-12T18:08:04.435Z,93554.22
2022-12-12T18:10:31.288Z,93556.72
2022-12-12T18:12:58.668Z,93545.28
2022-12-12T18:15:25.621Z,93553.25
2022-12-12T18:17:52.271Z,93552.31
2022-12-12T18:20:20.051Z,93549.41
2022-12-12T18:22:46.716Z,93554.31
2022-12-12T18:25:13.354Z,93557.72
2022-12-12T18:27:40.538Z,93565.44
2022-12-12T18:30:07.703Z,93569.41
2022-12-12T18:32:34.385Z,93564.13
2022-12-12T18:35:01.015Z,93566.53
2022-12-12T18:37:27.747Z,93562.28
2022-12-12T18:39:54.451Z,93562.53
2022-12-12T18:42:21.779Z,93570.53
2022-12-12T18:44:48.524Z,93569.91
2022-12-12T18:47:15.164Z,93574.66
2022-12-12T18:49:41.866Z,93575.22
2022-12-12T18:52:08.639Z,93581.19
2022-12-12T18:54:36.178Z,93579.63
2022-12-12T18:57:02.986Z,93579.09
2022-12-12T18:59:29.685Z,93585.31
2022-12-12T19:01:56.416Z,93578.91
2022-12-12T19:04:23.832Z,93589.94
2022-12-12T19:06:50.891Z,93591.97
2022-12-12T19:09:18.664Z,93597.09
2022-12-12T19:11:49.102Z,93599.59
2022-12-12T19:14:16.853Z,93592.56
2022-12-12T19:16:44.203Z,93596.50
2022-12-12T19:19:12.149Z,93596.50
2022-12-12T19:21:39.081Z,93568.59
2022-12-12T19:24:09.409Z,93603.47
2022-12-12T19:26:37.140Z,93595.47
2022-12-12T19:29:09.839Z,93605.09
2022-12-12T19:31:36.670Z,93600.03
2022-12-12T19:34:04.846Z,93614.13
2022-12-12T19:36:32.546Z,93606.22
2022-12-12T19:39:00.803Z,93622.75
2022-12-12T19:41:28.568Z,93612.75
2022-12-12T19:43:57.339Z,93615.75
2022-12-12T19:46:26.243Z,93607.13
2022-12-12T19:48:57.625Z,93614.56
2022-12-12T19:51:25.897Z,93614.94
2022-12-12T19:53:58.563Z,93619.13
2022-12-12T19:56:33.222Z,93616.50
2022-12-12T19:59:01.560Z,93616.75
2022-12-12T20:01:31.335Z,93630.34
2022-12-12T20:04:08.817Z,93626.72
2022-12-12T20:06:42.125Z,93629.75
2022-12-12T20:09:09.927Z,93636.09
2022-12-12T20:11:37.585Z,93633.25
2022-12-12T20:14:05.172Z,93638.44
2022-12-12T20:16:31.986Z,93641.41
2022-12-12T20:18:59.778Z,93639.00
2022-12-12T20:22:00.422Z,93637.44
2022-12-12T20:24:17.055Z,93646.38
2022-12-12T20:26:44.370Z,93628.69
2022-12-12T20:29:12.993Z,93635.06
2022-12-12T20:31:43.558Z,93628.75
2022-12-12T20:34:11.770Z,93633.59
2022-12-12T20:36:40.752Z,93633.19
2022-12-12T20:39:09.509Z,93634.38
2022-12-12T20:41:40.538Z,93633.41
2022-12-12T20:44:09.337Z,93634.09
2022-12-12T20:46:38.235Z,93635.56
2022-12-12T20:49:07.393Z,93638.44
2022-12-12T20:54:22.892Z,93636.63
2022-12-12T20:56:50.122Z,93642.38
2022-12-12T20:59:16.911Z,93630.13
2022-12-12T21:01:43.647Z,93637.00
2022-12-12T21:04:10.712Z,93636.63
2022-12-12T21:06:40.831Z,93643.06
2022-12-12T21:09:09.546Z,93629.94
2022-12-12T21:11:37.376Z,93638.84
2022-12-12T21:14:04.307Z,93634.72
2022-12-12T21:16:34.070Z,93641.13
2022-12-12T21:19:03.750Z,93633.22
2022-12-12T21:21:30.647Z,93641.34
2022-12-12T21:23:57.895Z,93641.63
2022-12-12T21:26:29.129Z,93640.41
2022-12-12T21:28:56.769Z,93643.59
2022-12-12T21:31:26.244Z,93641.41
2022-12-12T21:33:53.533Z,93636.63
2022-12-12T21:36:21.653Z,93641.44
2022-12-12T21:38:48.899Z,93639.81
2022-12-12T21:41:18.007Z,93640.50
2022-12-12T21:43:45.338Z,93630.78
2022-12-12T21:46:18.093Z,93619.59
2022-12-12T21:48:45.135Z,93640.19
2022-12-12T21:51:16.811Z,93639.47
2022-12-12T21:53:43.486Z,93642.13
2022-12-12T21:56:17.585Z,93640.16
2022-12-12T21:58:46.211Z,93628.59
2022-12-12T22:01:16.397Z,93636.63
2022-12-12T22:03:43.625Z,93643.81
2022-12-12T22:06:14.711Z,93634.00
2022-12-12T22:08:42.106Z,93640.19
2022-12-12T22:11:09.868Z,93636.28
2022-12-12T22:13:40.146Z,93642.22
2022-12-12T22:16:10.795Z,93647.38
2022-12-12T22:18:37.385Z,93642.31
2022-12-12T22:21:08.917Z,93642.34
2022-12-12T22:23:36.667Z,93634.78
2022-12-12T22:26:17.480Z,93635.38
2022-12-12T22:28:44.342Z,93644.28
2022-12-12T22:31:11.339Z,93640.06
2022-12-12T22:33:38.433Z,93639.94
2022-12-12T22:36:06.788Z,93639.47
2022-12-12T22:38:38.021Z,93644.19
2022-12-12T22:41:06.310Z,93636.63
2022-12-12T22:43:33.409Z,93640.03
2022-12-12T22:46:09.827Z,93628.72
2022-12-12T22:48:36.617Z,93636.38
2022-12-12T22:51:18.039Z,93635.19
2022-12-12T22:53:45.079Z,93634.28
2022-12-12T22:56:12.593Z,93629.78
2022-12-12T22:58:39.457Z,93625.41
2022-12-12T23:01:08.103Z,93615.56
2022-12-12T23:03:34.727Z,93623.00
2022-12-12T23:06:03.353Z,93616.47
2022-12-12T23:08:30.159Z,93625.72
2022-12-12T23:10:56.825Z,93607.03
2022-12-12T23:13:23.497Z,93615.50
2022-12-12T23:15:50.206Z,93627.16
2022-12-12T23:18:18.395Z,93632.34
2022-12-12T23:20:46.089Z,93629.88
2022-12-12T23:23:12.653Z,93629.84
2022-12-12T23:25:39.250Z,93614.25
2022-12-12T23:28:12.215Z,93630.31
2022-12-12T23:30:40.432Z,93630.09
2022-12-12T23:33:07.373Z,93621.44
2022-12-12T23:35:33.931Z,93613.22
2022-12-12T23:38:00.601Z,93619.16
2022-12-12T23:40:27.202Z,93613.88
2022-12-12T23:42:53.932Z,93605.53
2022-12-12T23:45:20.508Z,93608.38
2022-12-12T23:47:47.123Z,93613.56
2022-12-12T23:50:13.712Z,93609.75
2022-12-12T23:52:40.302Z,93611.03
2022-12-12T23:55:07.290Z,93611.09
2022-12-12T23:57:33.916Z,93617.59
